Time;durP1;ratioP1;P1;durP2;ratioP2;P2;SDS_P1;SDS_P2;PMS_P1;PMS_P2;Temp;Humidity;BMP_temperature;BMP_pressure;BME280_temperature;BME280_humidity;BME280_pressure;Samples;Min_cycle;Max_cycle;Signal;HPM_P1;HPM_P2
2022/09/16 03:02:00;;;;;;;0.80;0.70;;;16.60;76.90;;;;;;5400117;23;20919;-71
2022/09/16 03:04:28;;;;;;;0.90;0.80;;;16.60;76.90;;;;;;4936642;29;20531;-70
2022/09/16 03:06:54;;;;;;;0.90;0.70;;;16.60;77.00;;;;;;4936140;29;20448;-71
2022/09/16 03:09:22;;;;;;;0.80;0.70;;;16.60;76.60;;;;;;4936406;29;20450;-71
2022/09/16 03:12:33;;;;;;;0.80;0.70;;;16.60;76.00;;;;;;4936302;29;20510;-71
2022/09/16 03:15:14;;;;;;;1.13;0.70;;;16.60;75.90;;;;;;4879039;29;20491;-70
2022/09/16 03:18:02;;;;;;;0.70;0.70;;;16.60;76.20;;;;;;4934466;29;20452;-71
2022/09/16 03:20:36;;;;;;;0.80;0.80;;;16.60;76.20;;;;;;4936229;29;20491;-70
2022/09/16 03:23:12;;;;;;;0.80;0.70;;;16.60;75.90;;;;;;4936276;29;20437;-71
2022/09/16 03:25:47;;;;;;;0.90;0.80;;;16.70;75.80;;;;;;4935958;29;20963;-71
2022/09/16 03:28:17;;;;;;;0.70;0.70;;;16.70;76.20;;;;;;4936221;29;20518;-71
2022/09/16 03:30:52;;;;;;;1.20;0.63;;;16.60;76.40;;;;;;4936116;29;20467;-71
2022/09/16 03:33:25;;;;;;;0.80;0.70;;;16.60;76.20;;;;;;4936211;29;20436;-71
2022/09/16 03:35:55;;;;;;;1.23;0.70;;;16.60;76.00;;;;;;4936107;29;20472;-71
2022/09/16 03:38:22;;;;;;;0.80;0.70;;;16.60;76.00;;;;;;4936152;29;20492;-71
2022/09/16 03:40:50;;;;;;;0.80;0.80;;;16.60;76.10;;;;;;4936225;29;20570;-71
2022/09/16 03:43:17;;;;;;;1.23;0.83;;;16.60;76.80;;;;;;4936023;29;20459;-71
2022/09/16 03:45:44;;;;;;;1.20;0.70;;;16.50;77.60;;;;;;4935951;29;20802;-71
2022/09/16 03:48:13;;;;;;;0.90;0.80;;;16.50;77.80;;;;;;4936017;29;20459;-70
2022/09/16 03:50:41;;;;;;;0.90;0.70;;;16.60;78.00;;;;;;4935885;29;20515;-71
2022/09/16 03:53:07;;;;;;;0.80;0.70;;;16.60;78.30;;;;;;4935966;29;20502;-70
2022/09/16 03:55:34;;;;;;;0.70;0.67;;;16.60;78.10;;;;;;4935907;29;20491;-71
2022/09/16 03:58:01;;;;;;;0.70;0.70;;;16.60;78.00;;;;;;4935949;29;20456;-70
2022/09/16 04:00:28;;;;;;;0.83;0.70;;;16.60;78.10;;;;;;4935789;29;20448;-71
2022/09/16 04:02:55;;;;;;;0.90;0.80;;;16.60;78.00;;;;;;4937611;29;20906;-71
2022/09/16 04:05:22;;;;;;;0.80;0.70;;;16.60;78.10;;;;;;4939598;29;20515;-71
2022/09/16 04:07:50;;;;;;;0.90;0.70;;;16.60;77.70;;;;;;4939538;29;20539;-71
2022/09/16 04:10:18;;;;;;;0.77;0.63;;;16.60;77.70;;;;;;4939195;29;20863;-71
2022/09/16 04:12:44;;;;;;;0.73;0.70;;;16.60;77.60;;;;;;4939643;29;20522;-71
2022/09/16 04:15:11;;;;;;;0.70;0.70;;;16.50;77.10;;;;;;4939362;29;20484;-70
2022/09/16 04:17:38;;;;;;;0.90;0.60;;;16.50;76.80;;;;;;4939383;29;20962;-71
2022/09/16 04:20:07;;;;;;;0.80;0.73;;;16.60;77.40;;;;;;4939038;29;20825;-71
2022/09/16 04:22:34;;;;;;;0.80;0.80;;;16.60;77.40;;;;;;4939232;29;20526;-71
2022/09/16 04:25:03;;;;;;;1.00;0.63;;;16.50;76.90;;;;;;4939313;29;20448;-71
2022/09/16 04:27:30;;;;;;;0.70;0.60;;;16.60;76.80;;;;;;4939506;29;20483;-70
2022/09/16 04:29:56;;;;;;;0.80;0.70;;;16.60;76.50;;;;;;4939239;29;20867;-71
2022/09/16 04:32:24;;;;;;;0.80;0.70;;;16.60;76.60;;;;;;4939026;29;20523;-71
2022/09/16 04:34:51;;;;;;;0.90;0.60;;;16.60;76.60;;;;;;4938971;29;20535;-71
2022/09/16 04:37:18;;;;;;;1.30;0.60;;;16.60;76.20;;;;;;4939225;29;20503;-70
2022/09/16 04:39:45;;;;;;;0.80;0.70;;;16.60;77.30;;;;;;4939551;29;20452;-71
2022/09/16 04:42:13;;;;;;;0.80;0.80;;;16.50;78.00;;;;;;4938603;29;21046;-71
2022/09/16 04:44:40;;;;;;;0.90;0.70;;;16.00;79.80;;;;;;4938863;29;20448;-71
2022/09/16 04:47:07;;;;;;;1.00;0.80;;;16.00;80.50;;;;;;4938823;29;20451;-71
2022/09/16 04:49:33;;;;;;;0.70;0.70;;;15.90;80.80;;;;;;4938698;29;20458;-71
2022/09/16 04:52:00;;;;;;;1.10;0.83;;;15.90;81.10;;;;;;4938570;29;20476;-71
2022/09/16 04:54:27;;;;;;;0.70;0.70;;;15.90;81.00;;;;;;4938612;29;20452;-71
2022/09/16 04:56:53;;;;;;;0.80;0.80;;;15.90;80.50;;;;;;4938691;29;20499;-71
2022/09/16 04:59:21;;;;;;;1.20;0.70;;;16.00;80.40;;;;;;4938592;29;20483;-71
2022/09/16 05:01:48;;;;;;;1.10;0.80;;;16.00;79.80;;;;;;4938147;29;21006;-71
2022/09/16 05:04:15;;;;;;;1.20;0.90;;;16.10;79.60;;;;;;4938610;29;20452;-70
2022/09/16 05:06:43;;;;;;;0.80;0.80;;;16.10;79.60;;;;;;4939321;29;20503;-71
2022/09/16 05:09:11;;;;;;;0.80;0.70;;;16.10;79.80;;;;;;4938702;29;20550;-71
2022/09/16 05:11:38;;;;;;;0.80;0.80;;;16.20;80.10;;;;;;4938054;29;20984;-70
2022/09/16 05:14:07;;;;;;;1.00;0.63;;;16.20;80.20;;;;;;4937350;29;20511;-71
2022/09/16 05:16:35;;;;;;;0.80;0.70;;;16.20;80.80;;;;;;4938272;29;20491;-71
2022/09/16 05:19:03;;;;;;;0.80;0.80;;;16.20;81.30;;;;;;4938330;29;20506;-71
2022/09/16 05:21:33;;;;;;;1.53;0.80;;;16.20;81.50;;;;;;4937885;29;20975;-71
2022/09/16 05:24:01;;;;;;;0.70;0.70;;;16.20;81.60;;;;;;4938157;29;20456;-71
2022/09/16 05:26:30;;;;;;;0.80;0.80;;;16.20;81.10;;;;;;4938094;29;20452;-70
2022/09/16 05:28:59;;;;;;;0.83;0.80;;;16.20;81.30;;;;;;4938064;29;20464;-71
2022/09/16 05:31:28;;;;;;;0.90;0.70;;;16.20;81.30;;;;;;4938028;29;20476;-71
2022/09/16 05:33:58;;;;;;;0.80;0.70;;;16.20;81.20;;;;;;4938002;29;20548;-71
2022/09/16 05:36:25;;;;;;;0.80;0.70;;;16.10;81.10;;;;;;4937593;29;20536;-71
2022/09/16 05:38:52;;;;;;;0.80;0.77;;;16.10;80.90;;;;;;4937899;29;20542;-71
2022/09/16 05:41:19;;;;;;;1.30;1.00;;;15.80;81.60;;;;;;4937524;29;20841;-71
2022/09/16 05:43:46;;;;;;;0.80;0.70;;;15.90;81.90;;;;;;4937858;29;20456;-71
2022/09/16 05:46:18;;;;;;;0.80;0.77;;;15.90;81.90;;;;;;4937772;29;20444;-71
2022/09/16 05:48:44;;;;;;;1.00;0.70;;;15.90;81.70;;;;;;4937677;29;20464;-71
2022/09/16 05:51:14;;;;;;;0.70;0.70;;;15.90;81.90;;;;;;4937265;29;20991;-71
2022/09/16 05:53:41;;;;;;;0.90;0.80;;;16.00;82.10;;;;;;4937808;29;20459;-71
2022/09/16 05:56:11;;;;;;;0.80;0.80;;;16.00;82.10;;;;;;4937187;29;20480;-72
2022/09/16 05:58:38;;;;;;;0.80;0.80;;;16.00;82.10;;;;;;4937674;29;20449;-72
2022/09/16 06:01:06;;;;;;;0.80;0.73;;;15.90;81.40;;;;;;4937630;29;20586;-72
2022/09/16 06:03:34;;;;;;;0.93;0.80;;;15.80;81.50;;;;;;4937631;29;20504;-72
2022/09/16 06:06:00;;;;;;;2.03;0.80;;;15.90;81.20;;;;;;4937771;29;20527;-72
2022/09/16 06:08:31;;;;;;;0.90;0.77;;;15.90;81.40;;;;;;4937600;29;20460;-72
2022/09/16 06:11:00;;;;;;;1.00;0.90;;;15.80;81.60;;;;;;4937647;29;20468;-71
2022/09/16 06:13:27;;;;;;;1.37;0.80;;;15.90;81.40;;;;;;4937378;29;20507;-72
2022/09/16 06:15:54;;;;;;;0.90;0.80;;;15.90;81.80;;;;;;4937457;29;20484;-72
2022/09/16 06:18:21;;;;;;;0.80;0.80;;;16.00;81.80;;;;;;4937219;29;20447;-72
2022/09/16 06:20:48;;;;;;;0.80;0.80;;;16.00;81.70;;;;;;4937230;29;20468;-72
2022/09/16 06:23:15;;;;;;;0.90;0.70;;;16.00;81.70;;;;;;4936906;29;21030;-71
2022/09/16 06:25:43;;;;;;;0.90;0.70;;;16.00;81.80;;;;;;4936593;29;20853;-72
2022/09/16 06:28:11;;;;;;;0.80;0.80;;;16.00;81.00;;;;;;4937290;29;20542;-72
2022/09/16 06:30:38;;;;;;;0.70;0.70;;;16.00;80.90;;;;;;4937004;29;20534;-72
2022/09/16 06:33:04;;;;;;;0.80;0.70;;;16.00;81.20;;;;;;4937165;29;20511;-72
2022/09/16 06:35:33;;;;;;;1.20;0.70;;;15.90;80.90;;;;;;4937264;29;20484;-72
2022/09/16 06:37:59;;;;;;;0.80;0.70;;;16.00;80.80;;;;;;4937383;29;20437;-71
2022/09/16 06:40:26;;;;;;;1.53;1.00;;;16.00;81.00;;;;;;4936889;29;20527;-71
2022/09/16 06:42:54;;;;;;;1.23;0.93;;;16.00;81.20;;;;;;4937137;29;20452;-71
2022/09/16 06:45:21;;;;;;;1.47;0.83;;;16.00;81.00;;;;;;4936678;29;20873;-71
2022/09/16 06:47:48;;;;;;;0.90;0.83;;;16.00;81.10;;;;;;4936901;29;20519;-70
2022/09/16 06:50:15;;;;;;;1.00;0.80;;;16.00;81.10;;;;;;4936992;29;20508;-71
2022/09/16 06:52:41;;;;;;;1.00;0.90;;;16.00;81.20;;;;;;4936749;29;20472;-71
2022/09/16 06:55:09;;;;;;;0.70;0.60;;;16.00;81.10;;;;;;4936809;29;20456;-71
2022/09/16 06:57:35;;;;;;;0.80;0.70;;;16.00;81.30;;;;;;4936411;29;20940;-70
2022/09/16 07:00:04;;;;;;;0.90;0.90;;;15.90;81.50;;;;;;4936670;29;20459;-71
2022/09/16 07:02:31;;;;;;;0.93;0.87;;;16.00;81.60;;;;;;4936675;29;20488;-71
2022/09/16 07:04:58;;;;;;;0.83;0.80;;;16.00;81.80;;;;;;4937145;29;20455;-71
2022/09/16 07:07:24;;;;;;;0.80;0.80;;;15.90;81.90;;;;;;4936737;29;20480;-70
2022/09/16 07:09:52;;;;;;;1.10;1.00;;;15.90;81.90;;;;;;4936808;29;20463;-71
2022/09/16 07:12:18;;;;;;;0.90;0.90;;;15.80;82.00;;;;;;4936455;29;20899;-71
2022/09/16 07:14:45;;;;;;;0.90;0.80;;;15.80;80.90;;;;;;4936838;29;20448;-71
2022/09/16 07:17:13;;;;;;;1.00;0.90;;;15.70;80.70;;;;;;4936577;29;20488;-71
2022/09/16 07:19:41;;;;;;;1.00;0.90;;;15.70;81.20;;;;;;4936715;29;20452;-71
2022/09/16 07:22:07;;;;;;;1.17;0.97;;;15.60;81.50;;;;;;4936594;29;20476;-71
2022/09/16 07:24:34;;;;;;;0.80;0.80;;;15.60;81.60;;;;;;4936493;29;20507;-72
2022/09/16 07:27:01;;;;;;;1.73;0.90;;;15.60;81.60;;;;;;4936753;29;20448;-71
2022/09/16 07:29:27;;;;;;;0.80;0.80;;;15.70;81.80;;;;;;4936389;29;20452;-71
2022/09/16 07:31:54;;;;;;;0.97;0.80;;;15.70;81.80;;;;;;4936209;29;20468;-71
2022/09/16 07:34:22;;;;;;;1.00;0.80;;;15.70;81.80;;;;;;4936361;29;20503;-72
2022/09/16 07:36:50;;;;;;;0.80;0.80;;;15.70;81.80;;;;;;4936774;29;20480;-72
2022/09/16 07:39:18;;;;;;;1.00;0.90;;;15.60;82.10;;;;;;4940361;29;20503;-72
2022/09/16 07:41:47;;;;;;;0.70;0.67;;;15.60;82.10;;;;;;4940099;29;20550;-72
2022/09/16 07:44:15;;;;;;;0.80;0.70;;;15.70;82.20;;;;;;4940192;29;20958;-72
2022/09/16 07:46:42;;;;;;;0.80;0.73;;;15.70;82.50;;;;;;4939847;29;20991;-71
2022/09/16 07:49:11;;;;;;;1.00;0.80;;;15.60;82.70;;;;;;4940089;29;20452;-71
2022/09/16 07:51:39;;;;;;;1.10;1.00;;;15.60;82.90;;;;;;4939923;29;20468;-72
2022/09/16 07:54:07;;;;;;;0.87;0.70;;;15.50;83.40;;;;;;4939999;29;20455;-72
2022/09/16 07:56:36;;;;;;;0.90;0.80;;;15.40;83.70;;;;;;4939876;29;20888;-72
2022/09/16 07:59:05;;;;;;;0.83;0.83;;;15.50;83.60;;;;;;4939840;29;20456;-71
2022/09/16 08:01:32;;;;;;;0.80;0.80;;;15.30;84.00;;;;;;4939667;29;20566;-72
2022/09/16 08:03:59;;;;;;;0.90;0.90;;;15.20;84.20;;;;;;4939794;29;20455;-72
2022/09/16 08:06:28;;;;;;;1.20;1.00;;;15.20;84.70;;;;;;4939658;29;20999;-72
2022/09/16 08:08:58;;;;;;;0.77;0.70;;;15.30;84.30;;;;;;4939610;29;20559;-71
2022/09/16 08:11:26;;;;;;;1.00;0.77;;;15.30;84.60;;;;;;4939635;29;20471;-72
2022/09/16 08:13:53;;;;;;;0.90;0.90;;;15.00;84.80;;;;;;4939241;29;20460;-72
2022/09/16 08:16:21;;;;;;;1.13;0.90;;;15.00;85.40;;;;;;4939444;29;20530;-71
2022/09/16 08:18:51;;;;;;;0.90;0.80;;;15.00;85.50;;;;;;4939441;29;20455;-71
2022/09/16 08:21:19;;;;;;;0.80;0.70;;;14.90;85.50;;;;;;4939432;29;20467;-71
2022/09/16 08:23:46;;;;;;;0.80;0.80;;;15.10;86.00;;;;;;4939430;29;20452;-71
2022/09/16 08:26:16;;;;;;;6.20;3.23;;;15.30;86.00;;;;;;4938970;29;20451;-72
2022/09/16 08:28:44;;;;;;;0.90;0.90;;;15.50;85.60;;;;;;4939543;29;20542;-71
2022/09/16 08:31:11;;;;;;;0.90;0.90;;;15.70;85.70;;;;;;4939288;29;20475;-71
2022/09/16 08:33:39;;;;;;;0.70;0.70;;;15.80;85.00;;;;;;4939074;29;20452;-71
2022/09/16 08:36:10;;;;;;;1.00;0.90;;;16.00;84.00;;;;;;4938966;29;20510;-71
2022/09/16 08:38:37;;;;;;;0.80;0.73;;;16.10;83.80;;;;;;4939083;29;20472;-71
2022/09/16 08:41:22;;;;;;;0.70;0.70;;;16.20;83.20;;;;;;4938691;29;20882;-71
2022/09/16 08:43:59;;;;;;;0.80;0.80;;;16.20;82.40;;;;;;4938929;29;20503;-72
2022/09/16 08:46:34;;;;;;;1.00;0.90;;;16.20;82.30;;;;;;4938900;29;20436;-71
2022/09/16 08:49:10;;;;;;;1.00;0.90;;;16.30;82.20;;;;;;4938749;29;20495;-71
2022/09/16 08:51:36;;;;;;;0.90;0.90;;;16.40;82.30;;;;;;4938935;29;20475;-71
2022/09/16 08:54:09;;;;;;;0.70;0.70;;;16.40;82.50;;;;;;4938425;29;20944;-70
2022/09/16 08:56:38;;;;;;;0.80;0.70;;;16.40;82.00;;;;;;4938358;29;20987;-70
2022/09/16 08:59:12;;;;;;;0.80;0.80;;;16.50;81.30;;;;;;4938653;29;20502;-71
2022/09/16 09:01:41;;;;;;;0.80;0.80;;;16.50;81.60;;;;;;4938152;29;21062;-71
2022/09/16 09:04:08;;;;;;;0.90;0.90;;;16.50;81.70;;;;;;4938552;29;20452;-71
2022/09/16 09:06:57;;;;;;;0.80;0.80;;;16.50;81.70;;;;;;4938484;29;20448;-71
2022/09/16 09:09:36;;;;;;;1.10;0.87;;;16.60;81.30;;;;;;4938260;29;20904;-70
2022/09/16 09:12:10;;;;;;;1.10;0.80;;;16.60;81.10;;;;;;4938348;29;20527;-70
2022/09/16 09:14:56;;;;;;;0.90;0.80;;;16.60;81.00;;;;;;4939763;29;20436;-70
2022/09/16 09:17:34;;;;;;;0.70;0.70;;;16.60;80.50;;;;;;4938169;29;20484;-70
2022/09/16 09:20:09;;;;;;;0.80;0.80;;;16.60;79.00;;;;;;4938314;29;20519;-70
2022/09/16 09:22:53;;;;;;;0.80;0.80;;;16.50;80.00;;;;;;4938374;29;20515;-70
2022/09/16 09:25:34;;;;;;;0.70;0.60;;;16.50;80.20;;;;;;4938168;29;20439;-70
2022/09/16 09:28:20;;;;;;;0.80;0.70;;;16.60;80.10;;;;;;4938191;29;20483;-70
2022/09/16 09:30:56;;;;;;;0.80;0.73;;;16.50;80.60;;;;;;4937912;29;20523;-70
2022/09/16 09:33:34;;;;;;;0.70;0.70;;;16.30;80.60;;;;;;4938045;29;20440;-70
2022/09/16 09:36:24;;;;;;;0.93;0.90;;;16.20;80.80;;;;;;4938202;29;20519;-71
2022/09/16 09:39:06;;;;;;;1.00;0.90;;;16.00;82.60;;;;;;4938056;29;20444;-72
2022/09/16 09:41:39;;;;;;;0.97;0.80;;;16.00;82.70;;;;;;4938000;29;20479;-72
2022/09/16 09:44:30;;;;;;;0.80;0.70;;;16.10;81.90;;;;;;4938159;29;20839;-72
2022/09/16 09:47:01;;;;;;;0.73;0.73;;;16.20;81.50;;;;;;4938020;29;20440;-71
2022/09/16 09:49:32;;;;;;;0.73;0.70;;;16.20;81.10;;;;;;4938182;29;20496;-72
2022/09/16 09:52:07;;;;;;;1.10;0.70;;;16.30;81.30;;;;;;4938046;29;20887;-72
2022/09/16 09:54:35;;;;;;;0.80;0.70;;;16.40;80.90;;;;;;4937962;29;20876;-72
2022/09/16 09:57:07;;;;;;;0.80;0.70;;;16.50;81.00;;;;;;4937697;29;20494;-72
2022/09/16 09:59:43;;;;;;;0.73;0.73;;;16.50;80.80;;;;;;4937111;29;20912;-72
2022/09/16 10:02:16;;;;;;;0.70;0.70;;;16.50;80.60;;;;;;4937493;29;20564;-71
2022/09/16 10:04:43;;;;;;;0.80;0.70;;;16.60;80.80;;;;;;4937579;29;20523;-70
2022/09/16 10:07:13;;;;;;;0.70;0.70;;;16.40;80.60;;;;;;4937793;29;20444;-72
2022/09/16 10:09:48;;;;;;;0.70;0.70;;;16.30;80.70;;;;;;4937715;29;20456;-72
2022/09/16 10:12:14;;;;;;;0.80;0.70;;;16.20;80.90;;;;;;4937446;29;20479;-72
2022/09/16 10:14:46;;;;;;;0.80;0.80;;;16.30;81.20;;;;;;4937166;29;20936;-71
2022/09/16 10:17:16;;;;;;;0.70;0.70;;;16.20;80.90;;;;;;4937066;29;20472;-71
2022/09/16 10:19:51;;;;;;;0.70;0.60;;;16.20;81.50;;;;;;4937411;29;20456;-71
2022/09/16 10:22:23;;;;;;;0.70;0.70;;;16.20;81.50;;;;;;4937632;29;20472;-72
2022/09/16 10:24:54;;;;;;;0.70;0.63;;;16.30;81.90;;;;;;4937401;29;20437;-70
2022/09/16 10:27:24;;;;;;;1.53;0.70;;;16.40;82.30;;;;;;4937285;29;20440;-70
2022/09/16 10:30:13;;;;;;;0.70;0.63;;;16.60;82.50;;;;;;4937178;29;20463;-70
2022/09/16 10:32:49;;;;;;;0.70;0.70;;;16.60;81.30;;;;;;4937147;29;20503;-71
2022/09/16 10:35:20;;;;;;;0.70;0.60;;;16.70;80.90;;;;;;4937065;29;20440;-71
2022/09/16 10:37:51;;;;;;;0.80;0.70;;;16.70;81.20;;;;;;4936984;29;20472;-69
2022/09/16 10:40:18;;;;;;;0.80;0.70;;;16.90;81.10;;;;;;4938239;29;20483;-70
2022/09/16 10:42:47;;;;;;;0.80;0.60;;;16.90;79.10;;;;;;4936903;29;20478;-71
2022/09/16 10:45:20;;;;;;;0.80;0.80;;;16.90;79.50;;;;;;4936935;29;20452;-70
2022/09/16 10:47:50;;;;;;;0.70;0.60;;;16.90;78.70;;;;;;4936865;29;20804;-71
2022/09/16 10:50:19;;;;;;;0.80;0.70;;;16.80;78.20;;;;;;4936805;29;20452;-72
2022/09/16 10:52:47;;;;;;;0.80;0.60;;;16.70;78.90;;;;;;4936612;29;20986;-71
2022/09/16 10:55:26;;;;;;;0.70;0.60;;;16.70;79.10;;;;;;4936662;29;20456;-71
2022/09/16 10:57:54;;;;;;;0.70;0.60;;;16.60;78.50;;;;;;4936295;29;20472;-70
2022/09/16 11:00:24;;;;;;;0.73;0.63;;;16.60;78.90;;;;;;4936866;29;20487;-70
2022/09/16 11:03:20;;;;;;;0.70;0.70;;;16.60;79.30;;;;;;4936439;29;20944;-71
2022/09/16 11:06:00;;;;;;;0.70;0.60;;;16.70;79.10;;;;;;4936217;29;20940;-69
2022/09/16 11:08:42;;;;;;;0.70;0.60;;;16.70;79.40;;;;;;4936627;29;20439;-71
2022/09/16 11:11:18;;;;;;;0.80;0.70;;;16.60;79.00;;;;;;4936888;29;20471;-70
2022/09/16 11:13:52;;;;;;;0.90;0.77;;;16.60;79.50;;;;;;4936777;29;20428;-71
2022/09/16 11:16:44;;;;;;;1.10;0.73;;;16.70;79.30;;;;;;4936343;29;20515;-71
2022/09/16 11:19:18;;;;;;;0.70;0.70;;;16.70;78.80;;;;;;4937239;29;20451;-73
2022/09/16 11:22:12;;;;;;;0.70;0.60;;;16.70;79.10;;;;;;4936438;29;20476;-74
2022/09/16 11:24:49;;;;;;;0.70;0.70;;;16.80;79.50;;;;;;4936716;29;20449;-74
2022/09/16 11:27:29;;;;;;;0.70;0.63;;;16.90;79.10;;;;;;4937575;29;20428;-74
2022/09/16 11:30:11;;;;;;;0.70;0.70;;;16.70;78.20;;;;;;4936479;29;20448;-71
2022/09/16 11:33:11;;;;;;;0.80;0.60;;;16.80;79.00;;;;;;4936514;29;20491;-70
2022/09/16 11:36:03;;;;;;;0.80;0.70;;;16.90;78.50;;;;;;4936467;29;20490;-73
2022/09/16 11:38:39;;;;;;;0.80;0.67;;;16.70;79.20;;;;;;4936662;29;20593;-73
2022/09/16 11:41:15;;;;;;;0.70;0.60;;;16.60;78.80;;;;;;4936533;29;20975;-73
2022/09/16 11:44:06;;;;;;;0.80;0.70;;;16.60;79.70;;;;;;4936811;29;20435;-73
2022/09/16 11:46:42;;;;;;;0.80;0.70;;;16.60;79.10;;;;;;4936606;29;20445;-73
2022/09/16 11:49:30;;;;;;;0.77;0.60;;;16.60;77.70;;;;;;4936807;29;20425;-73
2022/09/16 11:52:08;;;;;;;0.80;0.70;;;16.60;78.40;;;;;;4937141;29;20486;-74
2022/09/16 11:55:07;;;;;;;0.70;0.60;;;16.60;79.00;;;;;;4936409;29;20438;-73
2022/09/16 11:57:38;;;;;;;0.80;0.70;;;16.80;77.60;;;;;;4936465;29;20480;-73
2022/09/16 12:00:11;;;;;;;0.90;0.70;;;16.80;76.40;;;;;;4936735;29;20448;-73
2022/09/16 12:02:42;;;;;;;0.70;0.60;;;16.80;76.60;;;;;;4935939;29;20992;-72
2022/09/16 12:05:18;;;;;;;0.80;0.70;;;17.00;76.20;;;;;;4936286;29;20436;-73
2022/09/16 12:07:51;;;;;;;0.90;0.73;;;17.10;76.50;;;;;;4935887;29;20443;-74
2022/09/16 12:10:23;;;;;;;0.90;0.73;;;17.40;76.10;;;;;;4937173;29;20452;-73
2022/09/16 12:12:53;;;;;;;0.70;0.60;;;17.70;74.30;;;;;;4936618;29;20436;-73
2022/09/16 12:15:24;;;;;;;1.20;0.70;;;17.90;72.30;;;;;;4936139;29;20452;-72
2022/09/16 12:17:54;;;;;;;0.80;0.70;;;18.00;70.40;;;;;;4936165;29;20999;-70
2022/09/16 12:20:26;;;;;;;0.70;0.60;;;18.00;68.80;;;;;;4936053;29;20456;-71
2022/09/16 12:22:58;;;;;;;0.80;0.60;;;18.10;68.40;;;;;;4936550;29;20439;-71
2022/09/16 12:25:28;;;;;;;1.27;0.80;;;18.30;67.90;;;;;;4939710;29;20443;-71
2022/09/16 12:28:00;;;;;;;0.80;0.70;;;18.40;68.40;;;;;;4939547;29;20451;-71
2022/09/16 12:30:30;;;;;;;0.70;0.60;;;18.60;69.40;;;;;;4939260;29;20451;-70
2022/09/16 12:33:04;;;;;;;0.70;0.60;;;18.60;69.20;;;;;;4939477;29;20507;-70
2022/09/16 12:35:36;;;;;;;0.70;0.67;;;18.70;67.30;;;;;;4939049;29;20975;-70
2022/09/16 12:38:04;;;;;;;1.07;0.80;;;18.60;67.70;;;;;;4938947;29;20984;-70
2022/09/16 12:40:38;;;;;;;0.70;0.57;;;18.40;68.30;;;;;;4938614;29;20919;-69
2022/09/16 12:43:20;;;;;;;0.70;0.60;;;18.20;67.80;;;;;;4939161;29;20560;-70
2022/09/16 12:46:27;;;;;;;0.70;0.60;;;18.30;69.90;;;;;;4939345;29;20468;-70
2022/09/16 12:49:19;;;;;;;0.70;0.50;;;18.10;69.70;;;;;;4938959;29;20467;-69
2022/09/16 12:52:16;;;;;;;0.70;0.60;;;18.10;69.40;;;;;;4938731;29;20551;-70
2022/09/16 12:55:14;;;;;;;0.80;0.60;;;17.90;69.10;;;;;;4938557;29;20871;-69
2022/09/16 12:57:56;;;;;;;0.70;0.70;;;17.80;70.70;;;;;;4938646;29;20524;-69
2022/09/16 13:00:24;;;;;;;0.80;0.70;;;17.70;70.70;;;;;;4938780;29;20436;-69
2022/09/16 13:02:55;;;;;;;0.70;0.60;;;17.60;70.60;;;;;;4938733;29;20492;-69
2022/09/16 13:05:26;;;;;;;0.80;0.60;;;17.70;72.10;;;;;;4938745;29;20492;-70
2022/09/16 13:07:57;;;;;;;0.70;0.63;;;17.70;72.70;;;;;;4938951;29;20429;-68
2022/09/16 13:10:28;;;;;;;1.17;0.63;;;17.70;71.10;;;;;;4938471;29;20479;-70
2022/09/16 13:12:59;;;;;;;0.70;0.60;;;17.70;70.40;;;;;;4938748;29;20499;-70
2022/09/16 13:15:28;;;;;;;0.70;0.60;;;17.90;70.40;;;;;;4938563;29;20778;-70
2022/09/16 13:17:56;;;;;;;0.70;0.60;;;17.90;69.40;;;;;;4938169;29;20491;-69
2022/09/16 13:20:28;;;;;;;1.20;0.70;;;17.80;69.90;;;;;;4938132;29;20452;-69
2022/09/16 13:23:07;;;;;;;0.70;0.70;;;18.20;70.90;;;;;;4938233;29;20440;-70
2022/09/16 13:25:44;;;;;;;0.70;0.60;;;18.40;68.60;;;;;;4938288;29;20507;-70
2022/09/16 13:28:27;;;;;;;1.20;0.70;;;18.80;67.20;;;;;;4937964;29;20445;-71
2022/09/16 13:30:54;;;;;;;0.70;0.60;;;19.30;66.70;;;;;;4938118;29;20468;-69
2022/09/16 13:33:27;;;;;;;0.80;0.60;;;19.40;64.30;;;;;;4938079;29;20507;-69
2022/09/16 13:36:15;;;;;;;0.70;0.60;;;19.70;61.50;;;;;;4937191;29;20488;-69
2022/09/16 13:38:45;;;;;;;0.70;0.60;;;20.00;62.70;;;;;;4937886;29;20548;-72
2022/09/16 13:41:14;;;;;;;1.17;1.07;;;20.30;62.70;;;;;;4937558;29;21035;-70
2022/09/16 13:43:52;;;;;;;0.70;0.60;;;20.60;61.30;;;;;;4937822;29;20507;-69
2022/09/16 13:46:32;;;;;;;1.00;0.60;;;20.30;58.10;;;;;;4937782;29;20871;-70
2022/09/16 13:49:15;;;;;;;0.70;0.60;;;19.90;59.70;;;;;;4938060;29;20578;-69
2022/09/16 13:51:45;;;;;;;0.90;0.60;;;20.10;61.90;;;;;;4937671;29;20567;-69
2022/09/16 13:54:31;;;;;;;0.70;0.60;;;20.20;60.50;;;;;;4937681;29;20452;-69
2022/09/16 13:57:30;;;;;;;0.70;0.60;;;20.60;59.60;;;;;;4938436;29;20441;-69
2022/09/16 14:00:12;;;;;;;0.70;0.60;;;20.90;58.40;;;;;;4937585;29;20444;-69
2022/09/16 14:02:57;;;;;;;0.80;0.70;;;21.00;57.20;;;;;;4937185;29;20583;-69
2022/09/16 14:05:41;;;;;;;0.70;0.57;;;20.70;56.60;;;;;;4938255;29;20574;-69
2022/09/16 14:08:15;;;;;;;0.70;0.60;;;20.40;57.60;;;;;;4937433;29;20443;-69
2022/09/16 14:10:52;;;;;;;0.77;0.57;;;20.00;58.60;;;;;;4937283;29;20440;-69
2022/09/16 14:13:21;;;;;;;1.13;0.60;;;20.00;59.10;;;;;;4937102;29;20978;-69
2022/09/16 14:15:51;;;;;;;0.70;0.60;;;19.80;58.90;;;;;;4937248;29;20452;-69
2022/09/16 14:18:22;;;;;;;0.80;0.60;;;19.60;59.80;;;;;;4937159;29;20483;-70
2022/09/16 14:20:57;;;;;;;0.70;0.50;;;19.70;59.80;;;;;;4937099;29;20491;-70
2022/09/16 14:23:25;;;;;;;0.70;0.50;;;19.70;61.40;;;;;;4937158;29;20436;-69
2022/09/16 14:25:53;;;;;;;0.80;0.60;;;20.60;58.60;;;;;;4936722;29;20948;-69
2022/09/16 14:28:23;;;;;;;0.70;0.50;;;20.70;57.50;;;;;;4937015;29;20535;-69
2022/09/16 14:30:52;;;;;;;0.90;0.60;;;20.80;58.00;;;;;;4936845;29;20527;-69
2022/09/16 14:33:23;;;;;;;0.70;0.60;;;21.10;56.90;;;;;;4936968;29;20456;-69
2022/09/16 14:35:53;;;;;;;0.80;0.60;;;22.90;53.40;;;;;;4936972;29;20436;-70
2022/09/16 14:38:22;;;;;;;0.80;0.60;;;24.10;50.50;;;;;;4936801;29;20579;-69
2022/09/16 14:40:49;;;;;;;0.70;0.60;;;25.70;49.70;;;;;;4936746;29;20468;-69
2022/09/16 14:43:20;;;;;;;0.70;0.70;;;27.40;45.00;;;;;;4936448;29;20456;-70
2022/09/16 14:45:50;;;;;;;0.80;0.70;;;27.40;44.50;;;;;;4936862;29;20504;-69
2022/09/16 14:48:19;;;;;;;0.80;0.70;;;26.50;45.10;;;;;;4936535;29;20823;-71
2022/09/16 14:50:48;;;;;;;0.70;0.60;;;26.30;45.00;;;;;;4936803;29;20555;-70
2022/09/16 14:53:29;;;;;;;0.70;0.60;;;25.50;46.60;;;;;;4936429;29;20940;-70
2022/09/16 14:55:56;;;;;;;0.70;0.60;;;24.40;48.40;;;;;;4936584;29;20458;-70
2022/09/16 14:58:27;;;;;;;1.23;0.73;;;23.20;50.30;;;;;;4936541;29;20487;-70
2022/09/16 15:00:58;;;;;;;0.80;0.80;;;22.70;52.20;;;;;;4936214;29;20547;-70
2022/09/16 15:03:32;;;;;;;0.70;0.60;;;22.20;52.90;;;;;;4936148;29;20440;-69
2022/09/16 15:06:03;;;;;;;1.00;0.60;;;21.20;55.40;;;;;;4936456;29;20437;-69
2022/09/16 15:08:34;;;;;;;0.90;0.60;;;21.50;56.00;;;;;;4936532;29;20441;-70
2022/09/16 15:11:06;;;;;;;0.80;0.60;;;22.60;53.00;;;;;;4935974;29;21027;-70
2022/09/16 15:13:38;;;;;;;0.80;0.60;;;22.70;53.00;;;;;;4937792;29;20444;-69
2022/09/16 15:16:10;;;;;;;0.80;0.60;;;22.70;51.70;;;;;;4936359;29;20499;-69
2022/09/16 15:18:38;;;;;;;0.73;0.67;;;22.60;52.70;;;;;;4936290;29;20573;-69
2022/09/16 15:21:08;;;;;;;0.70;0.50;;;22.10;53.80;;;;;;4936181;29;20515;-70
2022/09/16 15:23:38;;;;;;;0.87;0.70;;;21.50;54.40;;;;;;4936197;29;20452;-69
2022/09/16 15:26:14;;;;;;;0.80;0.70;;;21.20;55.10;;;;;;4936168;29;20452;-70
2022/09/16 15:28:55;;;;;;;1.20;0.70;;;21.00;56.70;;;;;;4936180;29;20862;-70
2022/09/16 15:31:30;;;;;;;0.70;0.60;;;20.70;56.80;;;;;;4936143;29;20472;-69
2022/09/16 15:33:58;;;;;;;0.70;0.50;;;20.40;57.60;;;;;;4936256;29;20456;-69
2022/09/16 15:36:33;;;;;;;0.80;0.60;;;20.00;57.70;;;;;;4935890;29;20452;-69
2022/09/16 15:39:00;;;;;;;1.00;0.63;;;19.70;59.20;;;;;;4936025;29;20483;-70
2022/09/16 15:41:27;;;;;;;0.70;0.60;;;19.40;59.20;;;;;;4936022;29;20468;-69
2022/09/16 15:43:55;;;;;;;0.83;0.60;;;19.10;58.90;;;;;;4936004;29;20451;-69
2022/09/16 15:46:23;;;;;;;0.80;0.60;;;18.90;59.60;;;;;;4936024;29;20495;-69
2022/09/16 15:48:55;;;;;;;0.70;0.60;;;18.70;59.80;;;;;;4935652;29;21019;-69
2022/09/16 15:51:29;;;;;;;0.70;0.60;;;18.40;60.20;;;;;;4935958;29;20559;-70
2022/09/16 15:54:00;;;;;;;1.10;0.70;;;18.10;61.20;;;;;;4935917;29;20437;-70
2022/09/16 15:56:32;;;;;;;0.80;0.60;;;18.00;61.30;;;;;;4935689;29;20991;-70
2022/09/16 15:59:05;;;;;;;0.70;0.60;;;18.00;63.80;;;;;;4937944;29;20468;-70
2022/09/16 16:01:42;;;;;;;0.80;0.60;;;17.90;62.80;;;;;;4939504;29;20574;-70
2022/09/16 16:04:10;;;;;;;0.70;0.60;;;17.80;62.50;;;;;;4939731;29;20440;-69
2022/09/16 16:06:46;;;;;;;0.80;0.60;;;17.70;63.00;;;;;;4939623;29;20460;-69
2022/09/16 16:09:43;;;;;;;0.73;0.50;;;17.40;63.00;;;;;;4939607;29;20443;-69
2022/09/16 16:12:13;;;;;;;0.70;0.50;;;17.40;62.90;;;;;;4880635;29;20553;-69
2022/09/16 16:14:41;;;;;;;0.70;0.60;;;17.20;63.90;;;;;;4926880;29;20562;-69